createdAt,value
2022-10-08T00:00:21.530Z,97257.72
2022-10-08T00:02:48.502Z,97259.84
2022-10-08T00:05:15.312Z,97262.44
2022-10-08T00:07:44.334Z,97262.13
2022-10-08T00:10:10.938Z,97265.75
2022-10-08T00:12:37.424Z,97257.69
2022-10-08T00:15:04.140Z,97257.50
2022-10-08T00:17:30.606Z,97262.38
2022-10-08T00:19:57.539Z,97255.28
2022-10-08T00:22:25.047Z,97258.78
2022-10-08T00:24:53.442Z,97264.53
2022-10-08T00:27:23.798Z,97249.06
2022-10-08T00:29:51.922Z,97248.56
2022-10-08T00:32:19.942Z,97244.63
2022-10-08T00:34:47.378Z,97250.34
2022-10-08T00:37:15.274Z,97245.81
2022-10-08T00:39:41.658Z,97251.94
2022-10-08T00:42:08.091Z,97248.78
2022-10-08T00:44:46.726Z,97238.72
2022-10-08T00:47:33.472Z,97247.63
2022-10-08T00:50:06.207Z,97242.22
2022-10-08T00:52:35.402Z,97245.81
2022-10-08T00:55:06.580Z,97255.34
2022-10-08T00:57:36.479Z,97244.34
2022-10-08T01:00:07.525Z,97242.88
2022-10-08T01:02:33.994Z,97236.16
2022-10-08T01:05:00.444Z,97230.88
2022-10-08T01:07:29.422Z,97241.09
2022-10-08T01:09:57.330Z,97242.56
2022-10-08T01:12:42.541Z,97244.69
2022-10-08T01:15:12.473Z,97243.06
2022-10-08T01:17:41.913Z,97237.94
2022-10-08T01:20:27.420Z,97240.63
2022-10-08T01:22:53.816Z,97240.44
2022-10-08T01:25:35.727Z,97244.91
2022-10-08T01:28:03.799Z,97233.72
2022-10-08T01:30:30.239Z,97248.22
2022-10-08T01:32:58.496Z,97250.03
2022-10-08T01:35:26.714Z,97239.38
2022-10-08T01:37:56.170Z,97239.38
2022-10-08T01:40:25.422Z,97242.66
2022-10-08T01:42:51.826Z,97244.47
2022-10-08T01:45:20.142Z,97237.22
2022-10-08T01:47:46.634Z,97243.00
2022-10-08T01:50:15.117Z,97243.25
2022-10-08T01:52:48.421Z,97241.56
2022-10-08T01:55:17.060Z,97239.19
2022-10-08T01:57:43.491Z,97237.44
2022-10-08T02:00:10.795Z,97233.00
2022-10-08T02:02:37.272Z,97234.91
2022-10-08T02:05:04.004Z,97239.31
2022-10-08T02:07:31.756Z,97230.41
2022-10-08T02:10:07.416Z,97233.69
2022-10-08T02:12:33.904Z,97236.06
2022-10-08T02:15:00.347Z,97235.25
2022-10-08T02:17:26.750Z,97228.84
2022-10-08T02:20:08.522Z,97237.88
2022-10-08T02:22:36.619Z,97230.06
2022-10-08T02:25:38.735Z,97229.44
2022-10-08T02:28:14.104Z,97226.50
2022-10-08T02:30:46.823Z,97224.28
2022-10-08T02:33:17.211Z,97222.81
2022-10-08T02:35:45.665Z,97226.63
2022-10-08T02:38:13.828Z,97222.22
2022-10-08T02:40:41.244Z,97224.28
2022-10-08T02:43:10.187Z,97223.09
2022-10-08T02:45:41.726Z,97230.75
2022-10-08T02:48:15.080Z,97221.84
2022-10-08T02:50:41.675Z,97223.91
2022-10-08T02:53:08.118Z,97216.81
2022-10-08T02:55:54.761Z,97214.72
2022-10-08T02:58:21.216Z,97214.03
2022-10-08T03:01:07.935Z,97209.75
2022-10-08T03:03:38.271Z,97208.47
2022-10-08T03:06:06.399Z,97210.09
2022-10-08T03:08:32.886Z,97216.00
2022-10-08T03:10:59.271Z,97208.94
2022-10-08T03:13:26.014Z,97209.75
2022-10-08T03:15:53.000Z,97217.00
2022-10-08T03:18:19.436Z,97214.69
2022-10-08T03:20:46.642Z,97214.34
2022-10-08T03:23:13.623Z,97213.25
2022-10-08T03:25:40.031Z,97216.81
2022-10-08T03:28:06.521Z,97219.31
2022-10-08T03:30:33.025Z,97212.03
2022-10-08T03:32:59.494Z,97209.34
2022-10-08T03:35:25.967Z,97215.28
2022-10-08T03:37:53.494Z,97218.94
2022-10-08T03:40:20.590Z,97209.22
2022-10-08T03:42:47.185Z,97212.50
2022-10-08T03:45:13.848Z,97213.94
2022-10-08T03:47:40.276Z,97212.56
2022-10-08T03:50:06.865Z,97218.47
2022-10-08T03:52:33.280Z,97214.84
2022-10-08T03:54:59.689Z,97216.78
2022-10-08T03:57:26.085Z,97216.09
2022-10-08T03:59:52.568Z,97213.75
2022-10-08T04:02:19.030Z,97208.06
2022-10-08T04:04:45.516Z,97212.03
2022-10-08T04:07:11.907Z,97206.78
2022-10-08T04:09:38.338Z,97218.16
2022-10-08T04:12:04.765Z,97212.09
2022-10-08T04:14:31.177Z,97215.56
2022-10-08T04:16:57.627Z,97214.63
2022-10-08T04:19:24.043Z,97223.47
2022-10-08T04:21:50.436Z,97215.19
2022-10-08T04:24:16.850Z,97223.81
2022-10-08T04:26:43.268Z,97227.75
2022-10-08T04:29:12.481Z,97220.28
2022-10-08T04:31:39.587Z,97232.84
2022-10-08T04:34:06.063Z,97217.53
2022-10-08T04:36:32.476Z,97233.47
2022-10-08T04:38:58.927Z,97230.38
2022-10-08T04:41:26.138Z,97236.72
2022-10-08T04:43:53.024Z,97236.47
2022-10-08T04:46:20.156Z,97234.19
2022-10-08T04:48:53.662Z,97237.09
2022-10-08T04:51:20.453Z,97236.06
2022-10-08T04:53:47.040Z,97241.63
2022-10-08T04:56:17.659Z,97252.56
2022-10-08T04:58:44.083Z,97249.00
2022-10-08T05:01:11.745Z,97247.28
2022-10-08T05:03:39.094Z,97249.13
2022-10-08T05:06:06.099Z,97255.13
2022-10-08T05:08:32.688Z,97257.94
2022-10-08T05:10:59.091Z,97258.41
2022-10-08T05:13:25.541Z,97252.19
2022-10-08T05:15:52.060Z,97267.69
2022-10-08T05:18:18.576Z,97259.31
2022-10-08T05:20:45.056Z,97262.25
2022-10-08T05:23:11.439Z,97263.06
2022-10-08T05:25:37.875Z,97257.22
2022-10-08T05:28:04.516Z,97250.00
2022-10-08T05:30:30.997Z,97256.25
2022-10-08T05:32:57.353Z,97261.31
2022-10-08T05:35:23.732Z,97272.66
2022-10-08T05:37:50.107Z,97268.22
2022-10-08T05:40:16.588Z,97277.56
2022-10-08T05:42:42.958Z,97276.44
2022-10-08T05:45:09.613Z,97279.41
2022-10-08T05:47:36.178Z,97279.09
2022-10-08T05:50:02.658Z,97281.22
2022-10-08T05:52:29.048Z,97286.31
2022-10-08T05:54:55.491Z,97289.75
2022-10-08T05:57:21.885Z,97289.28
2022-10-08T05:59:48.277Z,97291.91
2022-10-08T06:02:14.680Z,97287.47
2022-10-08T06:04:41.129Z,97293.91
2022-10-08T06:07:07.577Z,97292.25
2022-10-08T06:09:34.009Z,97283.19
2022-10-08T06:12:00.487Z,97287.00
2022-10-08T06:14:27.722Z,97295.25
2022-10-08T06:16:54.158Z,97297.22
2022-10-08T06:19:20.850Z,97304.13
2022-10-08T06:21:47.285Z,97307.25
2022-10-08T06:24:13.932Z,97311.34
2022-10-08T06:26:41.171Z,97312.63
2022-10-08T06:29:10.111Z,97321.50
2022-10-08T06:31:36.745Z,97328.09
2022-10-08T06:34:04.639Z,97329.03
2022-10-08T06:36:31.536Z,97324.06
2022-10-08T06:38:58.811Z,97334.44
2022-10-08T06:41:25.517Z,97340.19
2022-10-08T06:43:52.013Z,97349.06
2022-10-08T06:46:18.981Z,97350.38
2022-10-08T06:48:45.639Z,97346.06
2022-10-08T06:51:13.190Z,97341.59
2022-10-08T06:53:39.792Z,97347.69
2022-10-08T06:56:07.405Z,97359.53
2022-10-08T06:58:37.191Z,97361.66
2022-10-08T07:01:10.838Z,97364.75
2022-10-08T07:03:37.295Z,97368.69
2022-10-08T07:06:04.790Z,97367.38
2022-10-08T07:08:31.391Z,97374.59
2022-10-08T07:11:07.748Z,97374.72
2022-10-08T07:13:34.510Z,97379.94
2022-10-08T07:16:04.725Z,97381.06
2022-10-08T07:18:31.671Z,97383.69
2022-10-08T07:20:58.173Z,97391.25
2022-10-08T07:23:24.674Z,97397.16
2022-10-08T07:26:01.532Z,97391.56
2022-10-08T07:28:29.558Z,97401.56
2022-10-08T07:30:56.003Z,97399.03
2022-10-08T07:33:22.527Z,97418.75
2022-10-08T07:35:48.980Z,97409.84
2022-10-08T07:38:18.533Z,97415.41
2022-10-08T07:40:45.788Z,97412.59
2022-10-08T07:43:13.300Z,97426.31
2022-10-08T07:45:45.641Z,97432.94
2022-10-08T07:48:12.094Z,97431.66
2022-10-08T07:50:38.498Z,97436.31
2022-10-08T07:53:05.597Z,97441.94
2022-10-08T07:55:31.994Z,97439.06
2022-10-08T07:57:58.445Z,97440.56
2022-10-08T08:00:26.350Z,97449.09
2022-10-08T08:02:52.942Z,97450.38
2022-10-08T08:05:19.349Z,97457.41
2022-10-08T08:07:48.567Z,97450.75
2022-10-08T08:10:18.823Z,97459.09
2022-10-08T08:12:45.616Z,97465.03
2022-10-08T08:15:12.186Z,97471.00
2022-10-08T08:17:39.775Z,97464.53
2022-10-08T08:20:06.391Z,97473.47
2022-10-08T08:22:32.804Z,97469.69
2022-10-08T08:24:59.178Z,97475.44
2022-10-08T08:27:25.587Z,97478.16
2022-10-08T08:29:51.992Z,97479.63
2022-10-08T08:32:18.440Z,97481.72
2022-10-08T08:34:45.227Z,97489.84
2022-10-08T08:37:11.656Z,97494.22
2022-10-08T08:39:38.026Z,97500.69
2022-10-08T08:42:08.474Z,97504.94
2022-10-08T08:44:38.683Z,97510.59
2022-10-08T08:47:17.851Z,97516.09
2022-10-08T08:49:44.284Z,97517.09
2022-10-08T08:52:12.602Z,97519.13
2022-10-08T08:54:39.034Z,97524.31
2022-10-08T08:57:26.394Z,97517.56
2022-10-08T08:59:53.648Z,97520.03
2022-10-08T09:02:23.203Z,97530.50
2022-10-08T09:04:54.702Z,97531.72
2022-10-08T09:07:22.394Z,97534.34
2022-10-08T09:09:49.159Z,97530.38
2022-10-08T09:12:27.456Z,97529.22
2022-10-08T09:14:54.969Z,97535.81
2022-10-08T09:17:25.083Z,97534.09
2022-10-08T09:19:51.532Z,97536.41
2022-10-08T09:22:22.804Z,97547.69
2022-10-08T09:24:51.016Z,97545.56
2022-10-08T09:27:17.562Z,97547.81
2022-10-08T09:29:44.086Z,97550.66
2022-10-08T09:32:20.507Z,97558.72
2022-10-08T09:34:48.269Z,97550.03
2022-10-08T09:37:20.808Z,97558.91
2022-10-08T09:40:06.002Z,97557.47
2022-10-08T09:42:32.564Z,97554.13
2022-10-08T09:45:03.793Z,97555.06
2022-10-08T09:47:31.010Z,97555.66
2022-10-08T09:50:07.797Z,97567.41
2022-10-08T09:52:34.673Z,97560.91
2022-10-08T09:55:13.655Z,97562.09
2022-10-08T09:57:43.999Z,97570.53
2022-10-08T10:00:42.935Z,97552.31
2022-10-08T10:03:16.625Z,97559.84
2022-10-08T10:05:42.988Z,97568.13
2022-10-08T10:08:29.344Z,97567.13
2022-10-08T10:10:55.727Z,97567.09
2022-10-08T10:13:31.654Z,97571.91
2022-10-08T10:16:05.052Z,97567.66
2022-10-08T10:18:34.116Z,97571.91
2022-10-08T10:21:01.564Z,97565.66
2022-10-08T10:23:35.279Z,97566.56
2022-10-08T10:26:07.060Z,97579.75
2022-10-08T10:28:33.892Z,97580.56
2022-10-08T10:31:19.274Z,97582.34
2022-10-08T10:33:54.890Z,97589.19
2022-10-08T10:36:21.289Z,97594.22
2022-10-08T10:39:13.950Z,97581.09
2022-10-08T10:41:44.698Z,97589.09
2022-10-08T10:44:11.625Z,97584.03
2022-10-08T10:46:44.735Z,97590.69
2022-10-08T10:49:31.392Z,97589.06
2022-10-08T10:51:58.235Z,97596.22
2022-10-08T10:54:32.070Z,97583.75
2022-10-08T10:57:01.590Z,97591.53
2022-10-08T10:59:48.038Z,97591.88
2022-10-08T11:02:16.733Z,97600.91
2022-10-08T11:04:46.391Z,97598.72
2022-10-08T11:07:23.256Z,97610.75
2022-10-08T11:10:03.062Z,97597.06
2022-10-08T11:12:48.652Z,97596.25
2022-10-08T11:15:28.621Z,97592.78
2022-10-08T11:18:04.260Z,97594.78
2022-10-08T11:20:38.051Z,97585.56
2022-10-08T11:23:04.398Z,97584.25
2022-10-08T11:26:15.374Z,97588.66
2022-10-08T11:28:40.190Z,97585.19
2022-10-08T11:31:06.609Z,97577.09
2022-10-08T11:33:33.087Z,97584.66
2022-10-08T11:36:18.531Z,97585.41
2022-10-08T11:38:48.111Z,97580.56
2022-10-08T11:41:14.478Z,97585.25
2022-10-08T11:43:45.628Z,97585.41
2022-10-08T11:46:13.011Z,97574.19
2022-10-08T11:48:39.456Z,97579.91
2022-10-08T11:51:32.430Z,97572.09
2022-10-08T11:54:19.110Z,97573.44
2022-10-08T11:56:46.888Z,97586.22
2022-10-08T11:59:25.440Z,97579.75
2022-10-08T12:01:55.657Z,97573.06
2022-10-08T12:04:23.400Z,97567.22
2022-10-08T12:06:59.763Z,97568.34
2022-10-08T12:09:26.215Z,97574.97
2022-10-08T12:11:53.288Z,97567.69
2022-10-08T12:14:19.666Z,97575.53
2022-10-08T12:16:49.230Z,97578.53
2022-10-08T12:19:31.075Z,97579.31
2022-10-08T12:21:57.723Z,97581.59
2022-10-08T12:24:39.415Z,97576.13
2022-10-08T12:27:18.162Z,97590.19
2022-10-08T12:29:54.991Z,97574.19
2022-10-08T12:32:22.914Z,97592.31
2022-10-08T12:34:49.320Z,97592.59
2022-10-08T12:37:34.615Z,97594.28
2022-10-08T12:40:09.603Z,97595.63
2022-10-08T12:42:37.102Z,97593.81
2022-10-08T12:45:06.232Z,97601.13
2022-10-08T12:47:35.764Z,97607.00
2022-10-08T12:50:02.164Z,97599.28
2022-10-08T12:52:32.327Z,97603.63
2022-10-08T12:54:58.781Z,97601.13
2022-10-08T12:57:34.479Z,97602.00
2022-10-08T13:00:01.130Z,97600.00
2022-10-08T13:02:37.797Z,97608.72
2022-10-08T13:05:22.715Z,97602.31
2022-10-08T13:07:49.744Z,97606.19
2022-10-08T13:10:18.333Z,97600.34
2022-10-08T13:12:57.957Z,97609.22
2022-10-08T13:15:26.077Z,97610.78
2022-10-08T13:17:53.824Z,97610.81
2022-10-08T13:20:21.685Z,97612.16
2022-10-08T13:22:48.264Z,97614.50
2022-10-08T13:25:33.333Z,97615.19
2022-10-08T13:28:12.150Z,97604.63
2022-10-08T13:30:38.666Z,97605.56
2022-10-08T13:33:25.356Z,97611.78
2022-10-08T13:36:01.337Z,97618.22
2022-10-08T13:38:29.523Z,97622.72
2022-10-08T13:40:58.719Z,97621.13
2022-10-08T13:43:25.626Z,97622.16
2022-10-08T13:45:52.079Z,97632.22
2022-10-08T13:48:18.502Z,97630.72
2022-10-08T13:50:45.406Z,97643.41
2022-10-08T13:53:12.215Z,97639.88
2022-10-08T13:55:38.689Z,97641.06
2022-10-08T13:58:06.071Z,97650.97
2022-10-08T14:00:33.782Z,97646.69
2022-10-08T14:03:00.896Z,97647.06
2022-10-08T14:05:27.678Z,97648.84
2022-10-08T14:07:58.367Z,97653.59
2022-10-08T14:10:24.826Z,97649.72
2022-10-08T14:12:51.336Z,97652.19
2022-10-08T14:15:17.802Z,97652.16
2022-10-08T14:17:44.584Z,97645.41
2022-10-08T14:20:11.223Z,97649.94
2022-10-08T14:22:40.627Z,97650.97
2022-10-08T14:25:15.817Z,97639.66
2022-10-08T14:27:42.227Z,97640.09
2022-10-08T14:30:09.585Z,97635.41
2022-10-08T14:32:36.007Z,97641.16
2022-10-08T14:35:02.403Z,97648.72
2022-10-08T14:37:28.802Z,97648.06
2022-10-08T14:39:55.223Z,97642.44
2022-10-08T14:42:21.674Z,97643.00
2022-10-08T14:44:48.149Z,97647.69
2022-10-08T14:47:14.991Z,97649.38
2022-10-08T14:49:41.838Z,97649.06
2022-10-08T14:52:08.256Z,97651.34
2022-10-08T14:54:34.650Z,97651.38
2022-10-08T14:57:01.139Z,97654.44
2022-10-08T14:59:27.561Z,97659.38
2022-10-08T15:01:54.009Z,97669.13
2022-10-08T15:04:20.538Z,97660.31
2022-10-08T15:06:47.006Z,97657.97
2022-10-08T15:09:13.475Z,97668.53
2022-10-08T15:11:39.906Z,97662.78
2022-10-08T15:14:06.462Z,97659.16
2022-10-08T15:16:32.892Z,97665.13
2022-10-08T15:18:59.342Z,97668.84
2022-10-08T15:21:25.797Z,97669.88
2022-10-08T15:23:54.461Z,97678.47
2022-10-08T15:26:21.240Z,97670.69
2022-10-08T15:28:51.019Z,97673.72
2022-10-08T15:31:18.131Z,97670.06
2022-10-08T15:33:48.727Z,97674.00
2022-10-08T15:36:18.850Z,97680.09
2022-10-08T15:38:45.604Z,97673.44
2022-10-08T15:41:12.044Z,97688.91
2022-10-08T15:43:38.481Z,97682.31
2022-10-08T15:46:09.437Z,97675.97
2022-10-08T15:48:35.886Z,97676.50
2022-10-08T15:51:02.366Z,97681.78
2022-10-08T15:53:32.523Z,97683.31
2022-10-08T15:55:58.883Z,97685.88
2022-10-08T15:58:48.962Z,97696.25
2022-10-08T16:01:13.014Z,97695.38
2022-10-08T16:03:40.532Z,97696.75
2022-10-08T16:06:07.258Z,97702.19
2022-10-08T16:08:33.958Z,97708.63
2022-10-08T16:11:12.599Z,97704.97
2022-10-08T16:13:39.118Z,97700.22
2022-10-08T16:16:06.322Z,97706.50
2022-10-08T16:18:32.755Z,97714.31
2022-10-08T16:21:02.959Z,97716.56
2022-10-08T16:23:32.934Z,97712.50
2022-10-08T16:25:59.907Z,97724.50
2022-10-08T16:28:26.457Z,97729.63
2022-10-08T16:30:53.005Z,97724.63
2022-10-08T16:33:19.439Z,97729.19
2022-10-08T16:35:45.874Z,97733.38
2022-10-08T16:38:12.281Z,97741.41
2022-10-08T16:40:38.758Z,97744.47
2022-10-08T16:43:05.172Z,97753.56
2022-10-08T16:45:35.124Z,97753.00
2022-10-08T16:48:01.708Z,97763.81
2022-10-08T16:50:28.288Z,97765.06
2022-10-08T16:52:54.656Z,97776.69
2022-10-08T16:55:21.046Z,97779.75
2022-10-08T16:57:51.463Z,97780.16
2022-10-08T17:00:18.780Z,97789.97
2022-10-08T17:02:45.854Z,97792.81
2022-10-08T17:05:12.573Z,97801.47
2022-10-08T17:07:39.013Z,97806.16
2022-10-08T17:10:05.913Z,97804.09
2022-10-08T17:12:32.542Z,97803.28
2022-10-08T17:14:58.991Z,97811.59
2022-10-08T17:17:25.351Z,97812.25
2022-10-08T17:19:51.778Z,97813.09
2022-10-08T17:22:18.188Z,97810.28
2022-10-08T17:24:44.640Z,97815.09
2022-10-08T17:27:13.342Z,97825.28
2022-10-08T17:29:39.771Z,97828.06
2022-10-08T17:32:06.384Z,97836.09
2022-10-08T17:34:33.150Z,97842.34
2022-10-08T17:36:59.787Z,97846.06
2022-10-08T17:39:26.431Z,97848.81
2022-10-08T17:41:52.860Z,97859.50
2022-10-08T17:44:19.358Z,97862.78
2022-10-08T17:46:47.358Z,97862.28
2022-10-08T17:49:14.491Z,97865.97
2022-10-08T17:51:40.926Z,97862.63
2022-10-08T17:54:08.330Z,97871.44
2022-10-08T17:56:34.822Z,97865.84
2022-10-08T17:59:01.332Z,97874.03
2022-10-08T18:01:28.698Z,97884.56
2022-10-08T18:03:56.193Z,97875.03
2022-10-08T18:06:23.003Z,97878.25
2022-10-08T18:08:49.607Z,97890.06
2022-10-08T18:11:16.459Z,97880.84
2022-10-08T18:13:42.927Z,97889.56
2022-10-08T18:16:11.558Z,97891.69
2022-10-08T18:18:37.998Z,97897.59
2022-10-08T18:21:04.822Z,97892.19
2022-10-08T18:23:31.897Z,97899.63
2022-10-08T18:26:11.618Z,97900.91
2022-10-08T18:28:38.186Z,97902.50
2022-10-08T18:31:08.365Z,97908.97
2022-10-08T18:33:35.611Z,97911.56
2022-10-08T18:36:09.183Z,97913.09
2022-10-08T18:38:35.592Z,97916.34
2022-10-08T18:41:09.622Z,97927.44
2022-10-08T18:43:36.025Z,97927.44
2022-10-08T18:46:02.947Z,97934.97
2022-10-08T18:48:30.720Z,97937.22
2022-10-08T18:51:01.780Z,97931.75
2022-10-08T18:53:29.998Z,97937.25
2022-10-08T18:55:56.397Z,97945.59
2022-10-08T18:58:22.814Z,97948.16
2022-10-08T19:00:49.218Z,97946.78
2022-10-08T19:03:15.683Z,97949.69
2022-10-08T19:05:42.116Z,97946.84
2022-10-08T19:08:08.636Z,97954.06
2022-10-08T19:10:35.049Z,97960.34
2022-10-08T19:13:01.659Z,97958.84
2022-10-08T19:15:28.090Z,97955.53
2022-10-08T19:17:54.490Z,97963.28
2022-10-08T19:20:20.920Z,97968.00
2022-10-08T19:22:47.521Z,97969.41
2022-10-08T19:25:14.284Z,97961.97
2022-10-08T19:27:40.675Z,97971.63
2022-10-08T19:30:07.268Z,97974.09
2022-10-08T19:32:33.669Z,97973.56
2022-10-08T19:35:00.127Z,97980.47
2022-10-08T19:37:26.551Z,97978.53
2022-10-08T19:39:52.997Z,97979.25
2022-10-08T19:42:19.364Z,97985.16
2022-10-08T19:44:45.803Z,97990.66
2022-10-08T19:47:12.211Z,97982.69
2022-10-08T19:49:38.624Z,97993.78
2022-10-08T19:52:05.053Z,97987.44
2022-10-08T19:54:31.459Z,97994.34
2022-10-08T19:56:57.868Z,97994.38
2022-10-08T19:59:24.302Z,97996.41
2022-10-08T20:01:50.781Z,97998.34
2022-10-08T20:04:17.397Z,98000.44
2022-10-08T20:06:43.975Z,98000.44
2022-10-08T20:09:11.994Z,98008.44
2022-10-08T20:11:38.801Z,98007.09
2022-10-08T20:14:05.256Z,98005.38
2022-10-08T20:16:32.668Z,98011.19
2022-10-08T20:19:00.255Z,98009.22
2022-10-08T20:21:27.713Z,98016.97
2022-10-08T20:23:54.168Z,98016.25
2022-10-08T20:26:21.589Z,98014.63
2022-10-08T20:28:52.372Z,98009.50
2022-10-08T20:31:20.129Z,98017.22
2022-10-08T20:33:46.717Z,98021.38
2022-10-08T20:36:14.275Z,98024.78
2022-10-08T20:38:40.890Z,98028.09
2022-10-08T20:41:07.696Z,98028.75
2022-10-08T20:43:35.062Z,98026.81
2022-10-08T20:46:06.670Z,98030.53
2022-10-08T20:48:33.872Z,98033.16
2022-10-08T20:51:07.291Z,98027.94
2022-10-08T20:53:33.718Z,98035.59
2022-10-08T20:56:07.033Z,98036.16
2022-10-08T20:58:33.602Z,98035.16
2022-10-08T21:01:04.427Z,98032.09
2022-10-08T21:03:30.898Z,98035.69
2022-10-08T21:05:57.349Z,98033.88
2022-10-08T21:08:23.819Z,98034.16
2022-10-08T21:10:50.260Z,98032.22
2022-10-08T21:13:16.666Z,98034.47
2022-10-08T21:15:43.148Z,98035.81
2022-10-08T21:18:09.523Z,98039.09
2022-10-08T21:20:36.780Z,98038.97
2022-10-08T21:23:03.623Z,98032.22
2022-10-08T21:25:30.080Z,98039.13
2022-10-08T21:27:56.483Z,98038.44
2022-10-08T21:30:22.849Z,98047.50
2022-10-08T21:32:49.754Z,98047.34
2022-10-08T21:35:16.379Z,98042.81
2022-10-08T21:37:42.806Z,98045.78
2022-10-08T21:40:09.376Z,98042.59
2022-10-08T21:42:35.839Z,98040.34
2022-10-08T21:45:02.255Z,98042.53
2022-10-08T21:47:28.854Z,98044.69
2022-10-08T21:49:55.454Z,98038.78
2022-10-08T21:52:21.899Z,98041.94
2022-10-08T21:54:48.319Z,98045.66
2022-10-08T21:57:16.439Z,98048.97
2022-10-08T21:59:43.042Z,98046.06
2022-10-08T22:02:09.526Z,98047.88
2022-10-08T22:04:36.031Z,98049.66
2022-10-08T22:07:04.624Z,98049.50
2022-10-08T22:09:32.274Z,98044.31
2022-10-08T22:11:58.966Z,98048.69
2022-10-08T22:14:25.523Z,98051.06
2022-10-08T22:16:51.990Z,98047.75
2022-10-08T22:19:18.552Z,98045.16
2022-10-08T22:21:45.119Z,98050.34
2022-10-08T22:24:11.601Z,98048.22
2022-10-08T22:26:39.222Z,98053.72
2022-10-08T22:29:05.834Z,98053.25
2022-10-08T22:31:32.371Z,98047.69
2022-10-08T22:33:59.169Z,98044.75
2022-10-08T22:36:26.479Z,98045.13
2022-10-08T22:38:53.170Z,98052.84
2022-10-08T22:41:20.602Z,98053.56
2022-10-08T22:43:47.118Z,98045.97
2022-10-08T22:46:14.887Z,98050.63
2022-10-08T22:48:41.505Z,98043.47
2022-10-08T22:51:08.926Z,98045.66
2022-10-08T22:53:35.351Z,98044.47
2022-10-08T22:56:05.543Z,98037.75
2022-10-08T22:58:32.308Z,98048.00
2022-10-08T23:01:02.770Z,98049.91
2022-10-08T23:03:29.339Z,98044.53
2022-10-08T23:06:06.264Z,98048.56
2022-10-08T23:08:32.968Z,98047.63
2022-10-08T23:10:59.398Z,98048.44
2022-10-08T23:13:25.847Z,98039.91
2022-10-08T23:15:59.126Z,98044.41
2022-10-08T23:18:25.730Z,98047.03
2022-10-08T23:20:52.099Z,98042.19
2022-10-08T23:23:18.502Z,98049.44
2022-10-08T23:25:58.721Z,98046.97
2022-10-08T23:28:25.353Z,98044.94
2022-10-08T23:30:51.819Z,98041.38
2022-10-08T23:33:18.383Z,98041.03
2022-10-08T23:35:44.856Z,98041.28
2022-10-08T23:38:11.306Z,98038.31
2022-10-08T23:40:37.750Z,98052.81
2022-10-08T23:43:04.218Z,98050.69
2022-10-08T23:45:30.739Z,98051.75
2022-10-08T23:47:57.151Z,98048.34
2022-10-08T23:50:23.554Z,98050.25
2022-10-08T23:52:50.422Z,98050.25
2022-10-08T23:55:17.089Z,98047.63
2022-10-08T23:57:43.473Z,98043.94
